sensor_id;sensor_type;location;lat;lon;timestamp;P1;durP1;ratioP1;P2;durP2;ratioP2
61252;SDS011;47127;47.516;8.596;2023-08-01T00:00:02;9.30;;;5.30;;
61252;SDS011;47127;47.516;8.596;2023-08-01T00:02:30;12.05;;;5.97;;
61252;SDS011;47127;47.516;8.596;2023-08-01T00:04:56;11.80;;;5.63;;
61252;SDS011;47127;47.516;8.596;2023-08-01T00:07:21;9.75;;;5.22;;
61252;SDS011;47127;47.516;8.596;2023-08-01T00:09:47;14.98;;;5.72;;
61252;SDS011;47127;47.516;8.596;2023-08-01T00:12:12;9.25;;;5.63;;
61252;SDS011;47127;47.516;8.596;2023-08-01T00:14:38;9.25;;;5.00;;
61252;SDS011;47127;47.516;8.596;2023-08-01T00:17:03;11.70;;;5.60;;
61252;SDS011;47127;47.516;8.596;2023-08-01T00:19:30;13.90;;;5.63;;
61252;SDS011;47127;47.516;8.596;2023-08-01T00:21:55;12.98;;;4.75;;
61252;SDS011;47127;47.516;8.596;2023-08-01T00:24:20;11.30;;;5.97;;
61252;SDS011;47127;47.516;8.596;2023-08-01T00:26:46;15.98;;;5.80;;
61252;SDS011;47127;47.516;8.596;2023-08-01T00:29:12;9.80;;;5.28;;
61252;SDS011;47127;47.516;8.596;2023-08-01T00:31:38;17.40;;;6.15;;
61252;SDS011;47127;47.516;8.596;2023-08-01T00:34:04;9.63;;;5.93;;
61252;SDS011;47127;47.516;8.596;2023-08-01T00:36:29;12.65;;;5.68;;
61252;SDS011;47127;47.516;8.596;2023-08-01T00:38:55;9.35;;;5.22;;
61252;SDS011;47127;47.516;8.596;2023-08-01T00:41:20;12.02;;;5.82;;
61252;SDS011;47127;47.516;8.596;2023-08-01T00:43:46;10.63;;;5.55;;
61252;SDS011;47127;47.516;8.596;2023-08-01T00:46:11;10.35;;;5.45;;
61252;SDS011;47127;47.516;8.596;2023-08-01T00:48:37;11.20;;;5.55;;
61252;SDS011;47127;47.516;8.596;2023-08-01T00:51:04;11.98;;;5.18;;
61252;SDS011;47127;47.516;8.596;2023-08-01T00:53:31;9.15;;;5.07;;
61252;SDS011;47127;47.516;8.596;2023-08-01T00:55:58;9.85;;;4.93;;
61252;SDS011;47127;47.516;8.596;2023-08-01T00:58:24;9.77;;;4.40;;
61252;SDS011;47127;47.516;8.596;2023-08-01T01:00:50;9.38;;;4.38;;
61252;SDS011;47127;47.516;8.596;2023-08-01T01:03:15;9.57;;;4.97;;
61252;SDS011;47127;47.516;8.596;2023-08-01T01:06:25;12.82;;;5.72;;
61252;SDS011;47127;47.516;8.596;2023-08-01T01:08:30;8.43;;;4.55;;
61252;SDS011;47127;47.516;8.596;2023-08-01T01:10:56;10.88;;;4.85;;
61252;SDS011;47127;47.516;8.596;2023-08-01T01:13:21;9.52;;;5.05;;
61252;SDS011;47127;47.516;8.596;2023-08-01T01:15:47;10.70;;;5.40;;
61252;SDS011;47127;47.516;8.596;2023-08-01T01:18:13;12.48;;;4.93;;
61252;SDS011;47127;47.516;8.596;2023-08-01T01:20:38;12.60;;;5.05;;
61252;SDS011;47127;47.516;8.596;2023-08-01T01:23:04;8.15;;;4.35;;
61252;SDS011;47127;47.516;8.596;2023-08-01T01:25:31;10.85;;;4.88;;
61252;SDS011;47127;47.516;8.596;2023-08-01T01:27:58;10.15;;;4.55;;
61252;SDS011;47127;47.516;8.596;2023-08-01T01:30:24;12.25;;;4.75;;
61252;SDS011;47127;47.516;8.596;2023-08-01T01:32:52;9.02;;;4.88;;
61252;SDS011;47127;47.516;8.596;2023-08-01T01:35:18;8.88;;;4.18;;
61252;SDS011;47127;47.516;8.596;2023-08-01T01:37:43;9.90;;;4.25;;
61252;SDS011;47127;47.516;8.596;2023-08-01T01:40:09;9.30;;;4.82;;
61252;SDS011;47127;47.516;8.596;2023-08-01T01:42:35;8.98;;;4.35;;
61252;SDS011;47127;47.516;8.596;2023-08-01T01:45:00;12.45;;;4.03;;
61252;SDS011;47127;47.516;8.596;2023-08-01T01:47:26;9.38;;;4.05;;
61252;SDS011;47127;47.516;8.596;2023-08-01T01:49:51;8.70;;;4.18;;
61252;SDS011;47127;47.516;8.596;2023-08-01T01:52:17;8.43;;;3.85;;
61252;SDS011;47127;47.516;8.596;2023-08-01T01:54:42;8.75;;;4.65;;
61252;SDS011;47127;47.516;8.596;2023-08-01T01:57:08;9.70;;;4.32;;
61252;SDS011;47127;47.516;8.596;2023-08-01T01:59:33;7.13;;;3.92;;
61252;SDS011;47127;47.516;8.596;2023-08-01T02:01:59;9.30;;;3.88;;
61252;SDS011;47127;47.516;8.596;2023-08-01T02:04:24;9.27;;;4.30;;
61252;SDS011;47127;47.516;8.596;2023-08-01T02:06:50;8.77;;;4.30;;
61252;SDS011;47127;47.516;8.596;2023-08-01T02:09:18;9.95;;;4.32;;
61252;SDS011;47127;47.516;8.596;2023-08-01T02:11:43;8.68;;;3.60;;
61252;SDS011;47127;47.516;8.596;2023-08-01T02:14:09;8.93;;;3.90;;
61252;SDS011;47127;47.516;8.596;2023-08-01T02:16:34;7.30;;;3.53;;
61252;SDS011;47127;47.516;8.596;2023-08-01T02:19:00;8.93;;;3.95;;
61252;SDS011;47127;47.516;8.596;2023-08-01T02:21:25;8.35;;;4.07;;
61252;SDS011;47127;47.516;8.596;2023-08-01T02:23:51;6.18;;;3.53;;
61252;SDS011;47127;47.516;8.596;2023-08-01T02:26:16;6.85;;;3.70;;
61252;SDS011;47127;47.516;8.596;2023-08-01T02:28:42;7.88;;;3.50;;
61252;SDS011;47127;47.516;8.596;2023-08-01T02:31:08;9.00;;;4.05;;
61252;SDS011;47127;47.516;8.596;2023-08-01T02:33:33;7.57;;;3.47;;
61252;SDS011;47127;47.516;8.596;2023-08-01T02:35:59;5.93;;;3.35;;
61252;SDS011;47127;47.516;8.596;2023-08-01T02:38:24;7.43;;;3.35;;
61252;SDS011;47127;47.516;8.596;2023-08-01T02:40:50;5.40;;;2.92;;
61252;SDS011;47127;47.516;8.596;2023-08-01T02:43:15;7.70;;;3.22;;
61252;SDS011;47127;47.516;8.596;2023-08-01T02:45:42;9.25;;;3.40;;
61252;SDS011;47127;47.516;8.596;2023-08-01T02:48:07;8.27;;;3.70;;
61252;SDS011;47127;47.516;8.596;2023-08-01T02:50:33;6.57;;;3.10;;
61252;SDS011;47127;47.516;8.596;2023-08-01T02:52:58;8.30;;;3.10;;
61252;SDS011;47127;47.516;8.596;2023-08-01T02:55:24;6.63;;;3.20;;
61252;SDS011;47127;47.516;8.596;2023-08-01T02:57:49;8.20;;;3.33;;
61252;SDS011;47127;47.516;8.596;2023-08-01T03:00:15;7.78;;;3.35;;
61252;SDS011;47127;47.516;8.596;2023-08-01T03:02:43;6.20;;;3.22;;
61252;SDS011;47127;47.516;8.596;2023-08-01T03:05:09;6.57;;;3.63;;
61252;SDS011;47127;47.516;8.596;2023-08-01T03:07:35;6.50;;;3.22;;
61252;SDS011;47127;47.516;8.596;2023-08-01T03:10:01;6.85;;;3.13;;
61252;SDS011;47127;47.516;8.596;2023-08-01T03:12:27;7.88;;;3.55;;
61252;SDS011;47127;47.516;8.596;2023-08-01T03:14:52;6.43;;;3.63;;
61252;SDS011;47127;47.516;8.596;2023-08-01T03:17:18;5.78;;;3.17;;
61252;SDS011;47127;47.516;8.596;2023-08-01T03:19:43;9.50;;;4.00;;
61252;SDS011;47127;47.516;8.596;2023-08-01T03:22:09;7.65;;;3.20;;
61252;SDS011;47127;47.516;8.596;2023-08-01T03:24:35;6.13;;;3.05;;
61252;SDS011;47127;47.516;8.596;2023-08-01T03:27:01;6.88;;;3.42;;
61252;SDS011;47127;47.516;8.596;2023-08-01T03:29:26;6.97;;;3.47;;
61252;SDS011;47127;47.516;8.596;2023-08-01T03:31:52;8.55;;;3.50;;
61252;SDS011;47127;47.516;8.596;2023-08-01T03:34:18;9.13;;;3.70;;
61252;SDS011;47127;47.516;8.596;2023-08-01T03:36:43;9.23;;;3.80;;
61252;SDS011;47127;47.516;8.596;2023-08-01T03:39:10;6.68;;;3.38;;
61252;SDS011;47127;47.516;8.596;2023-08-01T03:41:36;6.75;;;2.92;;
61252;SDS011;47127;47.516;8.596;2023-08-01T03:44:04;6.18;;;3.25;;
61252;SDS011;47127;47.516;8.596;2023-08-01T03:46:30;8.05;;;3.33;;
61252;SDS011;47127;47.516;8.596;2023-08-01T03:48:55;6.68;;;3.10;;
61252;SDS011;47127;47.516;8.596;2023-08-01T03:51:21;7.35;;;3.13;;
61252;SDS011;47127;47.516;8.596;2023-08-01T03:53:47;7.63;;;3.15;;
61252;SDS011;47127;47.516;8.596;2023-08-01T03:56:13;4.95;;;2.58;;
61252;SDS011;47127;47.516;8.596;2023-08-01T03:58:38;9.85;;;3.58;;
61252;SDS011;47127;47.516;8.596;2023-08-01T04:01:04;7.72;;;3.08;;
61252;SDS011;47127;47.516;8.596;2023-08-01T04:03:31;5.75;;;2.67;;
61252;SDS011;47127;47.516;8.596;2023-08-01T04:05:57;7.93;;;2.83;;
61252;SDS011;47127;47.516;8.596;2023-08-01T04:08:22;6.93;;;3.05;;
61252;SDS011;47127;47.516;8.596;2023-08-01T04:10:48;5.35;;;3.10;;
61252;SDS011;47127;47.516;8.596;2023-08-01T04:13:15;5.53;;;2.60;;
61252;SDS011;47127;47.516;8.596;2023-08-01T04:15:40;6.07;;;2.83;;
61252;SDS011;47127;47.516;8.596;2023-08-01T04:18:06;6.65;;;2.65;;
61252;SDS011;47127;47.516;8.596;2023-08-01T04:20:31;6.20;;;3.03;;
61252;SDS011;47127;47.516;8.596;2023-08-01T04:22:57;6.40;;;2.72;;
61252;SDS011;47127;47.516;8.596;2023-08-01T04:25:23;5.63;;;2.50;;
61252;SDS011;47127;47.516;8.596;2023-08-01T04:27:49;4.95;;;2.97;;
61252;SDS011;47127;47.516;8.596;2023-08-01T04:30:15;6.03;;;2.80;;
61252;SDS011;47127;47.516;8.596;2023-08-01T04:32:41;6.72;;;2.92;;
61252;SDS011;47127;47.516;8.596;2023-08-01T04:35:06;7.78;;;3.03;;
61252;SDS011;47127;47.516;8.596;2023-08-01T04:37:32;6.63;;;2.70;;
61252;SDS011;47127;47.516;8.596;2023-08-01T04:39:58;7.03;;;2.55;;
61252;SDS011;47127;47.516;8.596;2023-08-01T04:42:23;8.02;;;3.17;;
61252;SDS011;47127;47.516;8.596;2023-08-01T04:44:49;7.53;;;2.35;;
61252;SDS011;47127;47.516;8.596;2023-08-01T04:47:15;7.38;;;2.67;;
61252;SDS011;47127;47.516;8.596;2023-08-01T04:49:40;8.43;;;2.78;;
61252;SDS011;47127;47.516;8.596;2023-08-01T04:52:06;5.93;;;2.83;;
61252;SDS011;47127;47.516;8.596;2023-08-01T04:54:32;5.45;;;2.65;;
61252;SDS011;47127;47.516;8.596;2023-08-01T04:56:57;4.72;;;2.30;;
61252;SDS011;47127;47.516;8.596;2023-08-01T04:59:23;6.18;;;2.63;;
61252;SDS011;47127;47.516;8.596;2023-08-01T05:01:48;5.82;;;2.33;;
61252;SDS011;47127;47.516;8.596;2023-08-01T05:04:14;5.32;;;2.72;;
61252;SDS011;47127;47.516;8.596;2023-08-01T05:06:40;6.72;;;2.78;;
61252;SDS011;47127;47.516;8.596;2023-08-01T05:09:05;6.65;;;2.67;;
61252;SDS011;47127;47.516;8.596;2023-08-01T05:11:32;8.30;;;3.08;;
61252;SDS011;47127;47.516;8.596;2023-08-01T05:13:57;4.78;;;2.33;;
61252;SDS011;47127;47.516;8.596;2023-08-01T05:16:23;6.93;;;2.42;;
61252;SDS011;47127;47.516;8.596;2023-08-01T05:18:48;7.38;;;2.83;;
61252;SDS011;47127;47.516;8.596;2023-08-01T05:21:14;6.43;;;2.72;;
61252;SDS011;47127;47.516;8.596;2023-08-01T05:23:39;6.70;;;2.30;;
61252;SDS011;47127;47.516;8.596;2023-08-01T05:26:05;6.25;;;2.70;;
61252;SDS011;47127;47.516;8.596;2023-08-01T05:28:30;6.68;;;2.58;;
61252;SDS011;47127;47.516;8.596;2023-08-01T05:30:56;6.13;;;2.28;;
61252;SDS011;47127;47.516;8.596;2023-08-01T05:33:21;7.22;;;2.60;;
61252;SDS011;47127;47.516;8.596;2023-08-01T05:35:48;6.90;;;2.25;;
61252;SDS011;47127;47.516;8.596;2023-08-01T05:38:14;6.00;;;2.05;;
61252;SDS011;47127;47.516;8.596;2023-08-01T05:40:39;5.50;;;2.70;;
61252;SDS011;47127;47.516;8.596;2023-08-01T05:43:05;4.97;;;2.25;;
61252;SDS011;47127;47.516;8.596;2023-08-01T05:45:33;7.63;;;2.60;;
61252;SDS011;47127;47.516;8.596;2023-08-01T05:48:01;7.20;;;2.90;;
61252;SDS011;47127;47.516;8.596;2023-08-01T05:50:27;5.25;;;2.28;;
61252;SDS011;47127;47.516;8.596;2023-08-01T05:52:53;8.77;;;2.45;;
61252;SDS011;47127;47.516;8.596;2023-08-01T05:55:18;5.57;;;2.63;;
61252;SDS011;47127;47.516;8.596;2023-08-01T05:57:44;6.20;;;2.28;;
61252;SDS011;47127;47.516;8.596;2023-08-01T06:00:10;4.80;;;2.08;;
61252;SDS011;47127;47.516;8.596;2023-08-01T06:02:36;7.90;;;2.72;;
61252;SDS011;47127;47.516;8.596;2023-08-01T06:05:02;6.38;;;2.72;;
61252;SDS011;47127;47.516;8.596;2023-08-01T06:07:28;6.40;;;2.33;;
61252;SDS011;47127;47.516;8.596;2023-08-01T06:09:54;7.45;;;2.33;;
61252;SDS011;47127;47.516;8.596;2023-08-01T06:12:19;7.38;;;2.70;;
61252;SDS011;47127;47.516;8.596;2023-08-01T06:14:46;8.43;;;2.75;;
61252;SDS011;47127;47.516;8.596;2023-08-01T06:17:12;9.25;;;2.38;;
61252;SDS011;47127;47.516;8.596;2023-08-01T06:19:38;5.15;;;2.40;;
61252;SDS011;47127;47.516;8.596;2023-08-01T06:22:03;5.70;;;2.65;;
61252;SDS011;47127;47.516;8.596;2023-08-01T06:24:29;7.30;;;2.80;;
61252;SDS011;47127;47.516;8.596;2023-08-01T06:26:54;6.72;;;2.50;;
61252;SDS011;47127;47.516;8.596;2023-08-01T06:29:21;7.55;;;2.70;;
61252;SDS011;47127;47.516;8.596;2023-08-01T06:31:48;6.22;;;2.42;;
61252;SDS011;47127;47.516;8.596;2023-08-01T06:34:13;6.05;;;2.70;;
61252;SDS011;47127;47.516;8.596;2023-08-01T06:36:39;7.70;;;2.72;;
61252;SDS011;47127;47.516;8.596;2023-08-01T06:39:04;9.60;;;2.83;;
61252;SDS011;47127;47.516;8.596;2023-08-01T06:41:30;7.43;;;3.10;;
61252;SDS011;47127;47.516;8.596;2023-08-01T06:43:57;6.80;;;2.90;;
61252;SDS011;47127;47.516;8.596;2023-08-01T06:46:22;9.68;;;2.55;;
61252;SDS011;47127;47.516;8.596;2023-08-01T06:48:48;8.82;;;2.83;;
61252;SDS011;47127;47.516;8.596;2023-08-01T06:51:13;10.55;;;3.20;;
61252;SDS011;47127;47.516;8.596;2023-08-01T06:53:39;7.40;;;2.80;;
61252;SDS011;47127;47.516;8.596;2023-08-01T06:56:04;10.45;;;3.50;;
61252;SDS011;47127;47.516;8.596;2023-08-01T06:58:30;6.40;;;2.70;;
61252;SDS011;47127;47.516;8.596;2023-08-01T07:00:55;7.25;;;3.03;;
61252;SDS011;47127;47.516;8.596;2023-08-01T07:03:21;6.30;;;2.80;;
61252;SDS011;47127;47.516;8.596;2023-08-01T07:05:47;6.88;;;2.78;;
61252;SDS011;47127;47.516;8.596;2023-08-01T07:08:13;9.80;;;3.38;;
61252;SDS011;47127;47.516;8.596;2023-08-01T07:10:38;9.95;;;3.28;;
61252;SDS011;47127;47.516;8.596;2023-08-01T07:13:04;6.75;;;2.92;;
61252;SDS011;47127;47.516;8.596;2023-08-01T07:15:30;6.85;;;3.00;;
61252;SDS011;47127;47.516;8.596;2023-08-01T07:17:56;6.25;;;2.78;;
61252;SDS011;47127;47.516;8.596;2023-08-01T07:20:22;6.32;;;3.03;;
61252;SDS011;47127;47.516;8.596;2023-08-01T07:22:47;9.27;;;2.85;;
61252;SDS011;47127;47.516;8.596;2023-08-01T07:25:13;8.07;;;3.05;;
61252;SDS011;47127;47.516;8.596;2023-08-01T07:27:39;10.35;;;3.17;;
61252;SDS011;47127;47.516;8.596;2023-08-01T07:30:05;5.82;;;3.08;;
61252;SDS011;47127;47.516;8.596;2023-08-01T07:32:31;7.55;;;3.08;;
61252;SDS011;47127;47.516;8.596;2023-08-01T07:34:56;10.40;;;3.13;;
61252;SDS011;47127;47.516;8.596;2023-08-01T07:37:22;6.97;;;3.15;;
61252;SDS011;47127;47.516;8.596;2023-08-01T07:39:49;7.53;;;3.22;;
61252;SDS011;47127;47.516;8.596;2023-08-01T07:42:15;5.68;;;2.53;;
61252;SDS011;47127;47.516;8.596;2023-08-01T07:44:41;6.68;;;2.88;;
61252;SDS011;47127;47.516;8.596;2023-08-01T07:47:06;7.70;;;2.72;;
61252;SDS011;47127;47.516;8.596;2023-08-01T07:49:33;5.90;;;2.20;;
61252;SDS011;47127;47.516;8.596;2023-08-01T07:51:58;10.30;;;2.78;;
61252;SDS011;47127;47.516;8.596;2023-08-01T07:54:24;6.95;;;2.88;;
61252;SDS011;47127;47.516;8.596;2023-08-01T07:56:50;5.68;;;2.95;;
61252;SDS011;47127;47.516;8.596;2023-08-01T07:59:15;9.48;;;2.78;;
61252;SDS011;47127;47.516;8.596;2023-08-01T08:01:41;7.18;;;2.83;;
61252;SDS011;47127;47.516;8.596;2023-08-01T08:04:07;6.88;;;2.85;;
61252;SDS011;47127;47.516;8.596;2023-08-01T08:06:32;8.57;;;2.78;;
61252;SDS011;47127;47.516;8.596;2023-08-01T08:08:58;8.13;;;2.80;;
61252;SDS011;47127;47.516;8.596;2023-08-01T08:11:23;5.07;;;2.70;;
61252;SDS011;47127;47.516;8.596;2023-08-01T08:13:49;6.65;;;2.72;;
61252;SDS011;47127;47.516;8.596;2023-08-01T08:16:14;7.60;;;2.88;;
61252;SDS011;47127;47.516;8.596;2023-08-01T08:18:40;5.22;;;2.50;;
61252;SDS011;47127;47.516;8.596;2023-08-01T08:21:06;6.85;;;2.88;;
61252;SDS011;47127;47.516;8.596;2023-08-01T08:23:31;7.03;;;3.00;;
61252;SDS011;47127;47.516;8.596;2023-08-01T08:25:57;8.48;;;3.05;;
61252;SDS011;47127;47.516;8.596;2023-08-01T08:28:29;8.43;;;3.17;;
61252;SDS011;47127;47.516;8.596;2023-08-01T08:30:57;7.40;;;3.10;;
61252;SDS011;47127;47.516;8.596;2023-08-01T08:33:23;9.75;;;3.45;;
61252;SDS011;47127;47.516;8.596;2023-08-01T08:35:49;8.43;;;3.75;;
61252;SDS011;47127;47.516;8.596;2023-08-01T08:38:15;7.40;;;3.33;;
61252;SDS011;47127;47.516;8.596;2023-08-01T08:40:43;6.63;;;3.20;;
61252;SDS011;47127;47.516;8.596;2023-08-01T08:43:31;7.90;;;3.15;;
61252;SDS011;47127;47.516;8.596;2023-08-01T08:45:56;5.90;;;3.08;;
61252;SDS011;47127;47.516;8.596;2023-08-01T08:48:24;6.30;;;3.28;;
61252;SDS011;47127;47.516;8.596;2023-08-01T08:50:51;6.43;;;3.25;;
61252;SDS011;47127;47.516;8.596;2023-08-01T08:53:17;9.95;;;3.85;;
61252;SDS011;47127;47.516;8.596;2023-08-01T08:55:43;9.38;;;3.00;;
61252;SDS011;47127;47.516;8.596;2023-08-01T08:58:09;7.45;;;3.00;;
61252;SDS011;47127;47.516;8.596;2023-08-01T09:00:38;8.75;;;3.58;;
61252;SDS011;47127;47.516;8.596;2023-08-01T09:03:04;7.22;;;3.08;;
61252;SDS011;47127;47.516;8.596;2023-08-01T09:05:31;5.78;;;2.85;;
61252;SDS011;47127;47.516;8.596;2023-08-01T09:08:06;6.90;;;3.10;;
61252;SDS011;47127;47.516;8.596;2023-08-01T09:10:36;7.38;;;3.33;;
61252;SDS011;47127;47.516;8.596;2023-08-01T09:13:01;7.47;;;3.00;;
61252;SDS011;47127;47.516;8.596;2023-08-01T09:15:27;9.35;;;3.50;;
61252;SDS011;47127;47.516;8.596;2023-08-01T09:17:54;8.00;;;3.45;;
61252;SDS011;47127;47.516;8.596;2023-08-01T09:20:26;9.57;;;3.80;;
61252;SDS011;47127;47.516;8.596;2023-08-01T09:22:52;7.85;;;3.58;;
61252;SDS011;47127;47.516;8.596;2023-08-01T09:25:18;6.50;;;3.03;;
61252;SDS011;47127;47.516;8.596;2023-08-01T09:27:43;7.63;;;3.45;;
61252;SDS011;47127;47.516;8.596;2023-08-01T09:30:10;8.73;;;3.65;;
61252;SDS011;47127;47.516;8.596;2023-08-01T09:32:38;8.43;;;3.40;;
61252;SDS011;47127;47.516;8.596;2023-08-01T09:35:04;6.40;;;3.03;;
61252;SDS011;47127;47.516;8.596;2023-08-01T09:37:40;6.28;;;3.15;;
61252;SDS011;47127;47.516;8.596;2023-08-01T09:40:07;8.00;;;3.00;;
61252;SDS011;47127;47.516;8.596;2023-08-01T09:42:37;8.93;;;3.60;;
61252;SDS011;47127;47.516;8.596;2023-08-01T09:45:17;6.78;;;3.08;;
61252;SDS011;47127;47.516;8.596;2023-08-01T09:47:43;7.38;;;3.35;;
61252;SDS011;47127;47.516;8.596;2023-08-01T09:50:10;6.80;;;2.95;;
61252;SDS011;47127;47.516;8.596;2023-08-01T09:52:44;6.43;;;2.90;;
61252;SDS011;47127;47.516;8.596;2023-08-01T09:55:17;6.53;;;2.83;;
61252;SDS011;47127;47.516;8.596;2023-08-01T09:57:44;8.77;;;3.28;;
61252;SDS011;47127;47.516;8.596;2023-08-01T10:00:13;7.40;;;3.08;;
61252;SDS011;47127;47.516;8.596;2023-08-01T10:02:39;7.55;;;2.80;;
61252;SDS011;47127;47.516;8.596;2023-08-01T10:05:08;6.75;;;2.80;;
61252;SDS011;47127;47.516;8.596;2023-08-01T10:07:35;7.05;;;2.45;;
61252;SDS011;47127;47.516;8.596;2023-08-01T10:10:06;8.40;;;2.97;;
61252;SDS011;47127;47.516;8.596;2023-08-01T10:12:32;7.68;;;2.80;;
61252;SDS011;47127;47.516;8.596;2023-08-01T10:14:58;7.32;;;2.72;;
61252;SDS011;47127;47.516;8.596;2023-08-01T10:17:25;7.43;;;3.05;;
61252;SDS011;47127;47.516;8.596;2023-08-01T10:19:51;5.63;;;3.10;;
61252;SDS011;47127;47.516;8.596;2023-08-01T10:22:18;9.05;;;2.80;;
61252;SDS011;47127;47.516;8.596;2023-08-01T10:24:45;8.65;;;3.25;;
61252;SDS011;47127;47.516;8.596;2023-08-01T10:27:15;4.78;;;2.35;;
61252;SDS011;47127;47.516;8.596;2023-08-01T10:29:44;7.35;;;3.00;;
61252;SDS011;47127;47.516;8.596;2023-08-01T10:32:20;5.97;;;2.63;;
61252;SDS011;47127;47.516;8.596;2023-08-01T10:34:54;5.65;;;2.22;;
61252;SDS011;47127;47.516;8.596;2023-08-01T10:37:20;5.43;;;2.72;;
61252;SDS011;47127;47.516;8.596;2023-08-01T10:39:55;6.85;;;2.80;;
61252;SDS011;47127;47.516;8.596;2023-08-01T10:44:47;6.20;;;2.73;;
61252;SDS011;47127;47.516;8.596;2023-08-01T10:47:13;6.70;;;2.17;;
61252;SDS011;47127;47.516;8.596;2023-08-01T10:49:42;4.85;;;2.42;;
61252;SDS011;47127;47.516;8.596;2023-08-01T10:52:15;4.32;;;2.15;;
61252;SDS011;47127;47.516;8.596;2023-08-01T10:54:42;4.72;;;1.98;;
61252;SDS011;47127;47.516;8.596;2023-08-01T10:57:07;4.60;;;2.15;;
61252;SDS011;47127;47.516;8.596;2023-08-01T10:59:33;6.15;;;2.10;;
61252;SDS011;47127;47.516;8.596;2023-08-01T11:01:59;6.13;;;2.05;;
61252;SDS011;47127;47.516;8.596;2023-08-01T11:04:26;3.38;;;1.65;;
61252;SDS011;47127;47.516;8.596;2023-08-01T11:06:53;5.90;;;1.98;;
61252;SDS011;47127;47.516;8.596;2023-08-01T11:09:23;6.03;;;1.85;;
61252;SDS011;47127;47.516;8.596;2023-08-01T11:11:51;4.25;;;1.60;;
61252;SDS011;47127;47.516;8.596;2023-08-01T11:14:21;2.83;;;1.40;;
61252;SDS011;47127;47.516;8.596;2023-08-01T11:16:48;3.53;;;1.50;;
61252;SDS011;47127;47.516;8.596;2023-08-01T11:19:24;3.88;;;1.63;;
61252;SDS011;47127;47.516;8.596;2023-08-01T11:21:52;3.03;;;1.50;;
61252;SDS011;47127;47.516;8.596;2023-08-01T11:24:19;3.50;;;1.42;;
61252;SDS011;47127;47.516;8.596;2023-08-01T11:26:48;2.97;;;1.23;;
61252;SDS011;47127;47.516;8.596;2023-08-01T11:29:14;3.88;;;1.60;;
61252;SDS011;47127;47.516;8.596;2023-08-01T11:31:41;3.72;;;1.60;;
61252;SDS011;47127;47.516;8.596;2023-08-01T11:34:17;2.83;;;1.08;;
61252;SDS011;47127;47.516;8.596;2023-08-01T11:36:43;3.45;;;1.42;;
61252;SDS011;47127;47.516;8.596;2023-08-01T11:39:10;2.95;;;1.30;;
61252;SDS011;47127;47.516;8.596;2023-08-01T11:41:38;3.35;;;1.40;;
61252;SDS011;47127;47.516;8.596;2023-08-01T11:44:04;3.05;;;1.35;;
61252;SDS011;47127;47.516;8.596;2023-08-01T11:46:31;2.92;;;1.42;;
61252;SDS011;47127;47.516;8.596;2023-08-01T11:48:59;4.45;;;1.60;;
61252;SDS011;47127;47.516;8.596;2023-08-01T11:51:25;3.20;;;1.38;;
61252;SDS011;47127;47.516;8.596;2023-08-01T11:53:58;2.40;;;1.17;;
61252;SDS011;47127;47.516;8.596;2023-08-01T11:56:25;3.13;;;1.50;;
61252;SDS011;47127;47.516;8.596;2023-08-01T11:58:51;4.07;;;1.58;;
61252;SDS011;47127;47.516;8.596;2023-08-01T12:01:16;5.45;;;1.52;;
61252;SDS011;47127;47.516;8.596;2023-08-01T12:03:52;3.75;;;1.35;;
61252;SDS011;47127;47.516;8.596;2023-08-01T12:06:19;3.40;;;1.15;;
61252;SDS011;47127;47.516;8.596;2023-08-01T12:08:47;1.83;;;1.10;;
61252;SDS011;47127;47.516;8.596;2023-08-01T12:11:26;3.28;;;1.20;;
61252;SDS011;47127;47.516;8.596;2023-08-01T12:14:13;2.35;;;1.13;;
61252;SDS011;47127;47.516;8.596;2023-08-01T12:16:44;3.08;;;1.17;;
61252;SDS011;47127;47.516;8.596;2023-08-01T12:19:11;2.72;;;1.00;;
61252;SDS011;47127;47.516;8.596;2023-08-01T12:21:42;2.35;;;1.02;;
61252;SDS011;47127;47.516;8.596;2023-08-01T12:24:09;2.88;;;1.00;;
61252;SDS011;47127;47.516;8.596;2023-08-01T12:26:34;1.85;;;1.10;;
61252;SDS011;47127;47.516;8.596;2023-08-01T12:29:00;2.25;;;1.02;;
61252;SDS011;47127;47.516;8.596;2023-08-01T12:31:25;1.65;;;0.82;;
61252;SDS011;47127;47.516;8.596;2023-08-01T12:33:51;2.50;;;1.13;;
61252;SDS011;47127;47.516;8.596;2023-08-01T12:36:18;4.13;;;1.00;;
61252;SDS011;47127;47.516;8.596;2023-08-01T12:38:44;2.38;;;0.98;;
61252;SDS011;47127;47.516;8.596;2023-08-01T12:41:09;3.72;;;1.30;;
61252;SDS011;47127;47.516;8.596;2023-08-01T12:43:35;1.85;;;0.95;;
61252;SDS011;47127;47.516;8.596;2023-08-01T12:46:01;2.13;;;1.20;;
61252;SDS011;47127;47.516;8.596;2023-08-01T12:48:26;4.47;;;1.17;;
61252;SDS011;47127;47.516;8.596;2023-08-01T12:50:53;3.05;;;1.30;;
61252;SDS011;47127;47.516;8.596;2023-08-01T12:53:20;3.22;;;1.20;;
61252;SDS011;47127;47.516;8.596;2023-08-01T12:55:47;3.47;;;1.52;;
61252;SDS011;47127;47.516;8.596;2023-08-01T12:58:16;3.85;;;1.00;;
61252;SDS011;47127;47.516;8.596;2023-08-01T13:00:43;4.75;;;1.50;;
61252;SDS011;47127;47.516;8.596;2023-08-01T13:03:09;2.83;;;1.17;;
61252;SDS011;47127;47.516;8.596;2023-08-01T13:05:36;3.13;;;1.30;;
61252;SDS011;47127;47.516;8.596;2023-08-01T13:08:03;2.78;;;1.42;;
61252;SDS011;47127;47.516;8.596;2023-08-01T13:10:29;2.25;;;1.10;;
61252;SDS011;47127;47.516;8.596;2023-08-01T13:12:56;2.95;;;1.00;;
61252;SDS011;47127;47.516;8.596;2023-08-01T13:15:22;2.45;;;1.20;;
61252;SDS011;47127;47.516;8.596;2023-08-01T13:17:48;3.20;;;1.10;;
61252;SDS011;47127;47.516;8.596;2023-08-01T13:20:14;2.55;;;0.90;;
61252;SDS011;47127;47.516;8.596;2023-08-01T13:22:40;3.55;;;1.20;;
61252;SDS011;47127;47.516;8.596;2023-08-01T13:25:07;2.15;;;1.10;;
61252;SDS011;47127;47.516;8.596;2023-08-01T13:27:35;3.78;;;1.17;;
61252;SDS011;47127;47.516;8.596;2023-08-01T13:30:02;3.88;;;1.38;;
61252;SDS011;47127;47.516;8.596;2023-08-01T13:32:27;2.17;;;1.05;;
61252;SDS011;47127;47.516;8.596;2023-08-01T13:34:53;2.28;;;1.02;;
61252;SDS011;47127;47.516;8.596;2023-08-01T13:37:19;1.92;;;0.90;;
61252;SDS011;47127;47.516;8.596;2023-08-01T13:39:44;3.60;;;1.20;;
61252;SDS011;47127;47.516;8.596;2023-08-01T13:42:11;1.90;;;0.88;;
61252;SDS011;47127;47.516;8.596;2023-08-01T13:44:37;2.95;;;1.33;;
61252;SDS011;47127;47.516;8.596;2023-08-01T13:47:02;2.60;;;1.30;;
61252;SDS011;47127;47.516;8.596;2023-08-01T13:49:28;3.30;;;1.20;;
61252;SDS011;47127;47.516;8.596;2023-08-01T13:51:54;2.30;;;1.00;;
61252;SDS011;47127;47.516;8.596;2023-08-01T13:54:20;2.50;;;1.33;;
61252;SDS011;47127;47.516;8.596;2023-08-01T13:56:45;2.53;;;1.30;;
61252;SDS011;47127;47.516;8.596;2023-08-01T13:59:11;3.20;;;1.25;;
61252;SDS011;47127;47.516;8.596;2023-08-01T14:01:36;6.03;;;1.42;;
61252;SDS011;47127;47.516;8.596;2023-08-01T14:04:03;5.00;;;1.52;;
61252;SDS011;47127;47.516;8.596;2023-08-01T14:06:29;5.80;;;1.20;;
61252;SDS011;47127;47.516;8.596;2023-08-01T14:08:55;6.57;;;1.45;;
61252;SDS011;47127;47.516;8.596;2023-08-01T14:11:20;5.15;;;2.00;;
61252;SDS011;47127;47.516;8.596;2023-08-01T14:13:46;4.00;;;1.40;;
61252;SDS011;47127;47.516;8.596;2023-08-01T14:16:12;2.90;;;1.42;;
61252;SDS011;47127;47.516;8.596;2023-08-01T14:18:37;3.22;;;1.17;;
61252;SDS011;47127;47.516;8.596;2023-08-01T14:21:03;4.28;;;1.25;;
61252;SDS011;47127;47.516;8.596;2023-08-01T14:23:30;6.82;;;1.98;;
61252;SDS011;47127;47.516;8.596;2023-08-01T14:25:57;1.85;;;1.00;;
61252;SDS011;47127;47.516;8.596;2023-08-01T14:28:23;2.35;;;1.05;;
61252;SDS011;47127;47.516;8.596;2023-08-01T14:30:48;1.92;;;1.08;;
61252;SDS011;47127;47.516;8.596;2023-08-01T14:33:14;1.63;;;0.82;;
61252;SDS011;47127;47.516;8.596;2023-08-01T14:35:40;2.72;;;1.10;;
61252;SDS011;47127;47.516;8.596;2023-08-01T14:38:05;1.50;;;0.70;;
61252;SDS011;47127;47.516;8.596;2023-08-01T14:40:31;1.33;;;0.65;;
61252;SDS011;47127;47.516;8.596;2023-08-01T14:42:59;4.47;;;0.85;;